Time;durP1;ratioP1;P1;durP2;ratioP2;P2;SDS_P1;SDS_P2;PMS_P1;PMS_P2;Temp;Humidity;BMP_temperature;BMP_pressure;BME280_temperature;BME280_humidity;BME280_pressure;Samples;Min_cycle;Max_cycle;Signal;HPM_P1;HPM_P2
2022/09/23 00:04:45;;;;;;;6.03;3.42;;;24.60;43.90;;;;;;20831667;28;20060;-58
2022/09/23 00:14:48;;;;;;;7.35;4.15;;;24.50;44.10;;;;;;20830935;28;20103;-58
2022/09/23 00:24:50;;;;;;;6.35;3.47;;;24.50;44.80;;;;;;20830663;28;20165;-58
2022/09/23 00:34:52;;;;;;;7.87;5.03;;;24.30;44.80;;;;;;20830118;28;20054;-56
2022/09/23 00:44:58;;;;;;;6.07;3.83;;;24.20;44.50;;;;;;20830194;28;20068;-58
2022/09/23 00:55:06;;;;;;;6.82;5.40;;;24.10;44.90;;;;;;20846024;28;20049;-57
2022/09/23 01:05:08;;;;;;;8.02;5.88;;;24.00;43.90;;;;;;20845200;28;20053;-58
2022/09/23 01:15:42;;;;;;;5.65;3.45;;;23.80;43.30;;;;;;20844866;28;20046;-58
2022/09/23 01:26:07;;;;;;;4.82;3.33;;;23.70;43.70;;;;;;20843321;28;20056;-59
2022/09/23 01:36:24;;;;;;;5.07;3.75;;;23.60;44.50;;;;;;20842818;28;20057;-57
2022/09/23 01:46:41;;;;;;;5.28;4.00;;;23.60;45.20;;;;;;20841381;28;20104;-57
2022/09/23 01:57:11;;;;;;;5.78;4.40;;;23.20;48.40;;;;;;20839331;28;20045;-62
2022/09/23 02:07:27;;;;;;;7.15;5.45;;;23.20;48.70;;;;;;20840485;28;20052;-57
2022/09/23 02:17:45;;;;;;;10.95;5.30;;;23.10;49.80;;;;;;20839219;28;20072;-56
2022/09/23 02:27:58;;;;;;;6.30;4.43;;;23.00;51.20;;;;;;20837921;28;20060;-56
2022/09/23 02:38:15;;;;;;;5.57;3.45;;;22.90;51.90;;;;;;20837250;28;20052;-57
2022/09/23 02:48:32;;;;;;;5.40;3.15;;;22.70;52.70;;;;;;20836995;28;20052;-57
2022/09/23 02:58:36;;;;;;;4.30;3.03;;;22.60;53.80;;;;;;20835924;28;20144;-57
2022/09/23 03:08:50;;;;;;;5.43;3.35;;;22.30;54.90;;;;;;20834534;28;20049;-57
2022/09/23 03:19:08;;;;;;;4.65;3.30;;;22.30;55.20;;;;;;20834242;28;20057;-56
2022/09/23 03:29:20;;;;;;;7.35;3.53;;;22.00;56.50;;;;;;20833993;28;20041;-56
2022/09/23 03:39:23;;;;;;;6.35;3.20;;;22.10;57.00;;;;;;20832790;28;20049;-56
2022/09/23 03:49:28;;;;;;;5.80;3.33;;;22.00;57.90;;;;;;20831806;28;20045;-56
2022/09/23 03:59:30;;;;;;;5.80;3.58;;;21.80;58.90;;;;;;20831663;28;20505;-57
2022/09/23 04:09:33;;;;;;;5.85;3.55;;;21.60;59.90;;;;;;20830646;28;20088;-57
2022/09/23 04:19:35;;;;;;;6.72;4.03;;;21.60;60.30;;;;;;20830250;28;20049;-56
2022/09/23 04:29:37;;;;;;;6.70;3.95;;;21.50;60.80;;;;;;20829574;28;20077;-56
2022/09/23 04:39:39;;;;;;;7.53;4.35;;;21.30;61.60;;;;;;20829056;28;20060;-57
2022/09/23 04:49:42;;;;;;;7.22;3.92;;;21.30;61.90;;;;;;20828936;28;20053;-57
2022/09/23 04:59:44;;;;;;;6.85;4.30;;;21.40;61.80;;;;;;20828669;28;20053;-56
2022/09/23 05:09:46;;;;;;;7.78;4.30;;;21.20;62.20;;;;;;20829205;28;20050;-58
2022/09/23 05:19:48;;;;;;;8.00;3.93;;;21.20;62.50;;;;;;20827556;28;20503;-57
2022/09/23 05:29:51;;;;;;;8.97;4.80;;;21.20;62.50;;;;;;20770129;28;20541;-58
2022/09/23 05:39:53;;;;;;;6.13;4.67;;;21.20;62.80;;;;;;20758620;28;20133;-56
2022/09/23 05:49:55;;;;;;;6.70;4.45;;;21.10;63.00;;;;;;20759511;28;20056;-57
2022/09/23 05:59:56;;;;;;;8.88;5.85;;;21.00;63.30;;;;;;20759141;28;20403;-57
2022/09/23 06:09:58;;;;;;;11.32;5.60;;;21.00;63.30;;;;;;20757634;28;20494;-57
2022/09/23 06:20:00;;;;;;;13.68;6.10;;;20.90;63.70;;;;;;20757607;28;20058;-57
2022/09/23 06:30:01;;;;;;;12.32;6.72;;;20.80;64.10;;;;;;20756790;28;20053;-57
2022/09/23 06:40:04;;;;;;;11.00;7.20;;;20.70;64.30;;;;;;20755608;28;20068;-57
2022/09/23 06:50:06;;;;;;;10.50;5.40;;;20.70;64.20;;;;;;20753691;28;20409;-56
2022/09/23 07:00:09;;;;;;;10.20;6.53;;;20.80;64.00;;;;;;20754036;28;20050;-58
2022/09/23 07:10:11;;;;;;;10.50;5.80;;;20.80;64.10;;;;;;20752909;28;20128;-57
2022/09/23 07:20:12;;;;;;;11.30;5.83;;;21.00;63.80;;;;;;20734699;28;20449;-57
2022/09/23 07:30:14;;;;;;;15.40;8.40;;;21.20;63.00;;;;;;20751954;28;20453;-58
2022/09/23 07:40:16;;;;;;;9.15;7.07;;;21.20;63.20;;;;;;20751385;28;20152;-57
2022/09/23 07:50:18;;;;;;;10.30;7.00;;;21.20;62.90;;;;;;20750377;28;20128;-57
2022/09/23 08:00:20;;;;;;;9.93;6.10;;;21.40;62.30;;;;;;20749658;28;20050;-57
2022/09/23 08:10:22;;;;;;;11.00;6.87;;;21.60;62.00;;;;;;20749249;28;20057;-57
2022/09/23 08:30:47;;;;;;;7.15;5.80;;;21.80;60.80;;;;;;20748025;28;20046;-56
2022/09/23 08:40:49;;;;;;;11.00;6.38;;;22.10;60.10;;;;;;20789300;28;20515;-55
2022/09/23 08:50:57;;;;;;;6.90;4.83;;;22.90;57.30;;;;;;20830201;28;20049;-56
2022/09/23 09:01:17;;;;;;;8.02;6.00;;;23.60;55.10;;;;;;20828395;28;20568;-55
2022/09/23 09:11:22;;;;;;;10.88;6.82;;;23.30;54.00;;;;;;20835906;28;20057;-57
2022/09/23 09:21:36;;;;;;;13.95;7.25;;;23.60;52.40;;;;;;20842708;28;20429;-57
2022/09/23 09:31:41;;;;;;;10.88;7.70;;;23.80;52.60;;;;;;20841760;28;20053;-55
2022/09/23 09:41:50;;;;;;;15.75;9.30;;;23.70;52.60;;;;;;20842062;28;20458;-55
2022/09/23 09:52:28;;;;;;;11.07;6.18;;;23.90;51.60;;;;;;20841428;28;20076;-56
2022/09/23 10:02:35;;;;;;;12.15;7.97;;;23.90;50.50;;;;;;20822514;28;20148;-57
2022/09/23 10:12:45;;;;;;;13.77;7.65;;;24.30;48.20;;;;;;20839375;28;20545;-57
2022/09/23 10:22:48;;;;;;;11.32;7.10;;;24.40;48.70;;;;;;20838410;28;20071;-57
2022/09/23 10:32:53;;;;;;;12.60;6.93;;;24.60;48.30;;;;;;20838870;28;20140;-59
2022/09/23 10:53:48;;;;;;;7.25;4.60;;;24.70;44.40;;;;;;20835163;28;20609;-57
2022/09/23 11:04:07;;;;;;;7.60;4.53;;;24.90;42.90;;;;;;20835476;28;20060;-56
2022/09/23 11:14:33;;;;;;;5.28;3.45;;;25.20;40.50;;;;;;20835590;28;20049;-57
2022/09/23 11:24:48;;;;;;;4.50;3.65;;;25.30;37.20;;;;;;20819611;28;20366;-56
2022/09/23 11:34:56;;;;;;;6.15;3.58;;;25.50;35.00;;;;;;20832377;28;20049;-55
2022/09/23 11:45:05;;;;;;;6.90;3.72;;;25.60;34.00;;;;;;20833189;28;20060;-58
2022/09/23 11:55:16;;;;;;;7.88;3.40;;;25.70;33.90;;;;;;20831465;28;20124;-56
2022/09/23 12:05:22;;;;;;;7.15;3.10;;;25.90;32.60;;;;;;20831506;28;20060;-58
2022/09/23 12:15:43;;;;;;;6.78;3.92;;;25.90;32.70;;;;;;20832253;28;20052;-56
2022/09/23 12:26:00;;;;;;;3.47;3.00;;;26.10;32.20;;;;;;20830807;28;20136;-57
2022/09/23 12:36:05;;;;;;;5.32;3.10;;;26.20;32.60;;;;;;20829513;28;20061;-56
2022/09/23 12:46:36;;;;;;;4.00;3.30;;;26.30;31.10;;;;;;20840907;28;20053;-56
2022/09/23 12:56:37;;;;;;;4.43;2.80;;;26.60;30.10;;;;;;20513367;29;20070;-55
2022/09/23 13:06:59;;;;;;;10.80;6.07;;;26.70;29.00;;;;;;20513174;29;20055;-55
2022/09/23 13:17:01;;;;;;;3.55;2.83;;;26.90;26.40;;;;;;20512039;28;20106;-56
2022/09/23 13:27:25;;;;;;;3.33;2.83;;;27.10;27.50;;;;;;20606078;28;20054;-55
2022/09/23 13:37:36;;;;;;;4.15;3.20;;;27.20;27.50;;;;;;20843666;28;20045;-56
2022/09/23 13:47:41;;;;;;;6.17;3.70;;;27.40;27.30;;;;;;20842100;28;20056;-54
2022/09/23 13:57:43;;;;;;;4.57;3.30;;;27.40;26.80;;;;;;20841257;28;20119;-55
2022/09/23 14:07:45;;;;;;;4.68;3.13;;;27.60;27.00;;;;;;20840227;28;20056;-61
2022/09/23 14:17:51;;;;;;;3.50;3.17;;;27.70;26.80;;;;;;20839567;28;20136;-57
2022/09/23 14:27:53;;;;;;;6.13;3.05;;;27.90;26.50;;;;;;20824097;28;20095;-56
2022/09/23 14:48:20;;;;;;;;;;;27.60;26.40;;;;;;20920725;28;20052;-56
2022/09/23 14:58:26;;;;;;;5.28;3.42;;;27.60;27.60;;;;;;20919449;28;20453;-56
2022/09/23 15:08:31;;;;;;;4.45;2.97;;;27.70;27.80;;;;;;20916673;28;20083;-55
2022/09/23 15:18:37;;;;;;;3.42;2.90;;;27.70;27.20;;;;;;20916901;28;20061;-54
2022/09/23 15:28:38;;;;;;;4.88;3.30;;;27.90;26.90;;;;;;20916056;28;20420;-54
2022/09/23 15:38:43;;;;;;;3.85;3.00;;;27.90;27.20;;;;;;20915231;28;20473;-57
2022/09/23 15:48:58;;;;;;;4.75;3.08;;;27.70;28.20;;;;;;20914762;28;20049;-57
2022/09/23 15:59:00;;;;;;;4.53;3.50;;;27.90;27.60;;;;;;20913551;28;20475;-54
2022/09/23 16:09:02;;;;;;;5.10;3.05;;;27.80;28.20;;;;;;20913564;28;20040;-53
2022/09/23 16:19:04;;;;;;;3.33;2.83;;;27.90;27.70;;;;;;20911962;28;20091;-52
2022/09/23 16:29:05;;;;;;;4.03;2.83;;;27.80;27.90;;;;;;20911855;28;20045;-53
2022/09/23 16:39:25;;;;;;;4.38;3.17;;;27.70;28.40;;;;;;20911191;28;20076;-55
2022/09/23 16:49:26;;;;;;;4.63;2.85;;;27.60;27.90;;;;;;20910565;28;20041;-59
2022/09/23 17:03:38;;;;;;;3.75;2.85;;;27.50;28.20;;;;;;20910520;28;20218;-56
2022/09/23 17:09:49;;;;;;;4.07;3.42;;;27.30;29.30;;;;;;20910360;28;20430;-58
2022/09/23 17:19:51;;;;;;;4.05;3.13;;;27.20;28.90;;;;;;20910321;28;20478;-56
2022/09/23 17:29:54;;;;;;;5.53;3.50;;;27.10;31.70;;;;;;20914017;28;20575;-57
2022/09/23 17:39:55;;;;;;;;;;;27.00;29.40;;;;;;20925356;28;20045;-57
2022/09/23 17:49:56;;;;;;;4.40;3.45;;;26.90;27.90;;;;;;20907691;28;20011;-56
2022/09/23 17:59:58;;;;;;;3.53;2.60;;;26.90;34.20;;;;;;20888081;28;20183;-56
2022/09/23 18:09:59;;;;;;;5.03;3.60;;;26.60;29.00;;;;;;20761475;28;20054;-58
2022/09/23 18:20:01;;;;;;;5.20;3.70;;;26.70;30.30;;;;;;20740890;28;20088;-58
2022/09/23 18:30:02;;;;;;;10.38;8.35;;;26.70;30.90;;;;;;20757359;28;20290;-57
2022/09/23 18:40:04;;;;;;;5.85;4.60;;;26.50;29.70;;;;;;20755755;28;20049;-59
2022/09/23 19:00:29;;;;;;;5.65;4.00;;;26.30;27.60;;;;;;20754683;28;20054;-55
2022/09/23 19:10:30;;;;;;;6.75;4.43;;;26.00;27.40;;;;;;20754777;28;20076;-57
2022/09/23 19:20:33;;;;;;;4.63;3.90;;;25.70;27.80;;;;;;20774526;28;20551;-56
2022/09/23 19:30:36;;;;;;;7.03;4.07;;;25.50;28.70;;;;;;20816604;28;20496;-58
2022/09/23 19:40:37;;;;;;;5.38;4.43;;;25.30;29.40;;;;;;20833776;28;20087;-56
2022/09/23 19:50:40;;;;;;;4.93;4.07;;;25.20;30.30;;;;;;20831886;28;20045;-57
2022/09/23 20:00:41;;;;;;;7.30;5.03;;;25.10;30.90;;;;;;20831531;28;20076;-56
2022/09/23 20:10:45;;;;;;;7.57;4.90;;;25.00;31.30;;;;;;20832197;28;20053;-58
2022/09/23 20:20:53;;;;;;;5.93;4.22;;;24.90;31.50;;;;;;20811874;28;20191;-57
2022/09/23 20:30:57;;;;;;;10.07;4.80;;;24.90;31.60;;;;;;20830585;28;20053;-58
2022/09/23 20:41:00;;;;;;;6.45;4.28;;;24.70;31.60;;;;;;20830244;28;20046;-56
2022/09/23 20:51:04;;;;;;;5.13;3.83;;;24.50;32.30;;;;;;20811202;28;20103;-56
2022/09/23 21:01:11;;;;;;;6.28;4.35;;;24.40;32.50;;;;;;20829149;28;20140;-55
2022/09/23 21:11:16;;;;;;;5.00;4.50;;;24.30;33.00;;;;;;20843156;28;20554;-55
2022/09/23 21:21:20;;;;;;;5.28;4.10;;;24.20;33.30;;;;;;20844177;28;20115;-56
2022/09/23 21:31:30;;;;;;;7.25;4.43;;;24.20;33.60;;;;;;20843178;28;20060;-55
2022/09/23 21:41:32;;;;;;;7.88;4.70;;;24.20;33.90;;;;;;20843544;28;20065;-56
2022/09/23 21:51:39;;;;;;;9.00;5.85;;;24.10;34.40;;;;;;20841786;28;20041;-55
2022/09/23 22:01:43;;;;;;;7.88;5.10;;;24.00;34.90;;;;;;20823717;28;20076;-59
2022/09/23 22:12:04;;;;;;;9.20;5.38;;;23.70;35.40;;;;;;20840404;28;20485;-58
2022/09/23 22:22:13;;;;;;;5.70;4.90;;;23.50;35.90;;;;;;20839293;28;20054;-57
2022/09/23 22:42:35;;;;;;;9.85;5.60;;;23.20;36.30;;;;;;20837564;28;20053;-57
2022/09/23 22:52:36;;;;;;;7.00;5.00;;;23.10;36.50;;;;;;20836892;28;20054;-57
2022/09/23 23:02:38;;;;;;;7.90;5.60;;;23.00;36.90;;;;;;20836319;28;20049;-57
2022/09/23 23:12:40;;;;;;;8.70;4.83;;;23.10;36.70;;;;;;20836406;28;20492;-56
2022/09/23 23:22:42;;;;;;;7.60;5.60;;;23.10;36.30;;;;;;20835900;28;20052;-57
2022/09/23 23:32:44;;;;;;;7.88;5.72;;;23.20;36.90;;;;;;20832980;28;20069;-57
2022/09/23 23:42:45;;;;;;;7.30;4.57;;;23.10;37.00;;;;;;20834246;28;20057;-57
2022/09/23 23:52:47;;;;;;;5.32;4.70;;;23.10;36.90;;;;;;20832754;28;20050;-56
